T.aylin — TCA3418 — position and weather

sailwx.info

Track history (hours):
 
Tides and Currents Weather Stations Pressure Air Temp Water Temp Dewpoint Dewpoint Depression Visibility Wind Speed Wind Dir Waves Ship Positions

T.aylin

Last reported at 2017-Oct-16 13:19 UTC. Time now 2017-Oct-17 20:44 UTC.
Position N 40°45' E 029°32'.

Length 156 m; draft 8.7 m.

Type: Tanker. MMSI: 271044068.

Date/timePositionNaut miles runAvg speedWind from/ knotsBaromVisibWave heightAir tempDewpointWater temp
2017-Oct-16 13:19N 40°45' E 029°32'310.0
2017-Oct-16 12:59N 40°45' E 029°28'511.2
2017-Oct-16 12:30N 40°43' E 029°21'510.3
2017-Oct-16 12:00N 40°43' E 029°14'611.5
2017-Oct-16 11:30N 40°43' E 029°07'611.2
2017-Oct-16 10:59N 40°43' E 028°59'510.9
2017-Oct-16 10:30N 40°44' E 028°52'13110.4
2017-Oct-15 21:55N 40°01' E 026°10'11 7.8
2017-Oct-15 20:29N 39°56' E 025°57'  
2017-Oct-12 18:29N 39°48' E 025°47'511.3
2017-Oct-12 18:00N 39°53' E 025°50'1012.8
2017-Oct-12 17:16N 40°00' E 025°58'312.0
2017-Oct-12 17:00N 40°01' E 026°02'712.8
2017-Oct-12 16:28N 40°02' E 026°11'  
2017-Oct-09 08:09N 40°45' E 029°31'2 9.9
2017-Oct-09 07:58N 40°45' E 029°29'5 9.6
2017-Oct-09 07:27N 40°43' E 029°23'2 5.4
2017-Oct-09 07:00N 40°43' E 029°20'3 3.1
2017-Oct-09 06:12N 40°44' E 029°16'0 0.7
2017-Oct-09 06:00N 40°44' E 029°16'0 0.8
2017-Oct-09 05:30N 40°43' E 029°17'0 0.8
2017-Oct-09 05:00N 40°43' E 029°17'2 4.5
2017-Oct-09 04:30N 40°43' E 029°14'611.0
2017-Oct-09 03:59N 40°43' E 029°07'511.1
2017-Oct-09 03:30N 40°43' E 028°59'611.0
2017-Oct-09 03:00N 40°43' E 028°52'  
2017-Oct-06 19:18N 39°47' E 025°46'411.3
2017-Oct-06 18:59N 39°51' E 025°46'1611.4
2017-Oct-06 17:36N 40°01' E 026°02'411.5
2017-Oct-06 17:17N 40°02' E 026°06'  
Track history (hours):
 
Tides and Currents Weather Stations Pressure Air Temp Water Temp Dewpoint Dewpoint Depression Visibility Wind Speed Wind Dir Waves Ship Positions

T.aylin

Last reported at 2017-Oct-16 13:19 UTC. Time now 2017-Oct-17 20:44 UTC.
Position N 40°45' E 029°32'.

Length 156 m; draft 8.7 m.

Type: Tanker. MMSI: 271044068.

Date/timePositionNaut miles runAvg speedWind from/ knotsBaromVisibWave heightAir tempDewpointWater temp
2017-Oct-16 13:19N 40°45' E 029°32'310.0
2017-Oct-16 12:59N 40°45' E 029°28'511.2
2017-Oct-16 12:30N 40°43' E 029°21'510.3
2017-Oct-16 12:00N 40°43' E 029°14'611.5
2017-Oct-16 11:30N 40°43' E 029°07'611.2
2017-Oct-16 10:59N 40°43' E 028°59'510.9
2017-Oct-16 10:30N 40°44' E 028°52'13110.4
2017-Oct-15 21:55N 40°01' E 026°10'11 7.8
2017-Oct-15 20:29N 39°56' E 025°57'  
2017-Oct-12 18:29N 39°48' E 025°47'511.3
2017-Oct-12 18:00N 39°53' E 025°50'1012.8
2017-Oct-12 17:16N 40°00' E 025°58'312.0
2017-Oct-12 17:00N 40°01' E 026°02'712.8
2017-Oct-12 16:28N 40°02' E 026°11'  
2017-Oct-09 08:09N 40°45' E 029°31'2 9.9
2017-Oct-09 07:58N 40°45' E 029°29'5 9.6
2017-Oct-09 07:27N 40°43' E 029°23'2 5.4
2017-Oct-09 07:00N 40°43' E 029°20'3 3.1
2017-Oct-09 06:12N 40°44' E 029°16'0 0.7
2017-Oct-09 06:00N 40°44' E 029°16'0 0.8
2017-Oct-09 05:30N 40°43' E 029°17'0 0.8
2017-Oct-09 05:00N 40°43' E 029°17'2 4.5
2017-Oct-09 04:30N 40°43' E 029°14'611.0
2017-Oct-09 03:59N 40°43' E 029°07'511.1
2017-Oct-09 03:30N 40°43' E 028°59'611.0
2017-Oct-09 03:00N 40°43' E 028°52'  
2017-Oct-06 19:18N 39°47' E 025°46'411.3
2017-Oct-06 18:59N 39°51' E 025°46'1611.4
2017-Oct-06 17:36N 40°01' E 026°02'411.5
2017-Oct-06 17:17N 40°02' E 026°06'  

Dump ship's entire track history